Time;durP1;ratioP1;P1;durP2;ratioP2;P2;SDS_P1;SDS_P2;PMS_P1;PMS_P2;Temp;Humidity;BMP_temperature;BMP_pressure;BME280_temperature;BME280_humidity;BME280_pressure;Samples;Min_cycle;Max_cycle;Signal;HPM_P1;HPM_P2
2021/10/27 00:00:32;;;;;;;8.90;3.50;;;12.90;55.10;;;;;;20797551;28;80754;-70
2021/10/27 00:10:34;;;;;;;14.57;3.97;;;12.80;55.60;;;;;;20797605;28;80810;-70
2021/10/27 00:20:38;;;;;;;9.93;4.53;;;12.60;56.40;;;;;;20797097;28;80715;-70
2021/10/27 00:30:39;;;;;;;12.40;4.80;;;12.50;56.80;;;;;;20796191;28;80799;-69
2021/10/27 00:40:41;;;;;;;10.15;4.30;;;12.40;57.40;;;;;;20794531;28;80848;-70
2021/10/27 00:50:43;;;;;;;9.60;4.07;;;12.40;57.30;;;;;;20806655;28;80441;-68
2021/10/27 01:00:46;;;;;;;12.03;3.93;;;12.40;57.10;;;;;;20809996;28;81855;-67
2021/10/27 01:10:48;;;;;;;9.83;4.43;;;12.00;57.10;;;;;;20808394;28;80976;-68
2021/10/27 01:20:52;;;;;;;;;;;11.90;57.40;;;;;;20809553;28;82030;-69
2021/10/27 01:30:54;;;;;;;10.65;4.05;;;11.60;57.30;;;;;;20829639;28;79503;-70
2021/10/27 01:40:56;;;;;;;5.95;3.17;;;11.50;57.60;;;;;;20804852;28;80258;-69
2021/10/27 01:51:00;;;;;;;11.48;3.38;;;11.40;58.00;;;;;;20803352;28;81829;-69
2021/10/27 02:01:07;;;;;;;6.07;3.33;;;11.30;58.10;;;;;;20799892;28;81902;-67
2021/10/27 02:11:22;;;;;;;7.78;3.50;;;11.10;58.60;;;;;;20799771;28;80512;-70
2021/10/27 02:21:31;;;;;;;5.70;3.13;;;11.00;58.70;;;;;;20799207;28;81503;-69
2021/10/27 02:31:45;;;;;;;10.57;3.23;;;10.80;59.00;;;;;;20794181;28;80742;-68
2021/10/27 02:41:56;;;;;;;4.70;2.60;;;10.70;59.20;;;;;;20801815;28;80932;-68
2021/10/27 02:52:03;;;;;;;8.45;3.17;;;10.60;59.60;;;;;;20802517;28;80749;-71
2021/10/27 03:02:10;;;;;;;8.00;3.33;;;10.40;59.80;;;;;;20801729;28;81812;-69
2021/10/27 03:12:15;;;;;;;7.80;2.72;;;10.30;60.30;;;;;;20802174;28;80453;-69
2021/10/27 03:22:21;;;;;;;6.63;3.75;;;10.40;60.40;;;;;;20801224;28;81886;-69
2021/10/27 03:32:24;;;;;;;;;;;10.20;60.50;;;;;;20800126;28;80520;-70
2021/10/27 03:42:27;;;;;;;5.70;3.28;;;10.10;60.60;;;;;;20820926;28;80829;-70
2021/10/27 03:52:31;;;;;;;7.05;3.20;;;10.10;60.60;;;;;;20799011;28;79958;-67
2021/10/27 04:02:40;;;;;;;8.10;3.50;;;10.10;60.80;;;;;;20798445;28;81030;-68
2021/10/27 04:12:43;;;;;;;5.30;2.90;;;10.00;61.10;;;;;;20798994;28;81655;-68
2021/10/27 04:22:47;;;;;;;9.77;3.15;;;9.90;61.30;;;;;;20841209;28;81849;-70
2021/10/27 04:32:51;;;;;;;9.27;2.90;;;9.80;61.60;;;;;;20865396;28;80014;-70
2021/10/27 04:42:55;;;;;;;12.75;3.75;;;9.80;61.80;;;;;;20813353;28;80457;-69
2021/10/27 04:53:01;;;;;;;6.82;3.22;;;9.90;61.80;;;;;;20811249;28;81793;-68
2021/10/27 05:03:04;;;;;;;11.32;3.67;;;9.80;61.90;;;;;;20811744;28;80562;-70
2021/10/27 05:13:06;;;;;;;14.73;4.10;;;9.70;62.20;;;;;;20817709;28;81023;-70
2021/10/27 05:23:13;;;;;;;10.03;3.70;;;9.70;62.40;;;;;;20872445;28;81976;-70
2021/10/27 05:33:16;;;;;;;10.73;4.50;;;9.70;62.60;;;;;;20877144;27;81208;-70
2021/10/27 05:43:19;;;;;;;11.02;5.22;;;9.70;62.60;;;;;;20877794;28;81411;-69
2021/10/27 06:03:44;;;;;;;12.48;4.43;;;9.60;62.70;;;;;;20868969;28;81283;-73
2021/10/27 06:13:50;;;;;;;11.63;4.57;;;9.50;62.90;;;;;;20871225;27;81105;-60
2021/10/27 06:23:54;;;;;;;11.32;4.32;;;9.50;63.00;;;;;;20871916;28;81380;-65
2021/10/27 06:54:29;;;;;;;19.60;6.13;;;9.50;63.30;;;;;;20870237;28;81752;-60
2021/10/27 07:15:08;;;;;;;16.35;5.05;;;9.70;63.40;;;;;;20870517;28;81556;-59
2021/10/27 07:25:11;;;;;;;35.47;6.28;;;9.90;63.00;;;;;;20872733;28;80780;-59
2021/10/27 07:35:18;;;;;;;23.15;6.82;;;10.00;62.50;;;;;;20870193;28;81922;-59
2021/10/27 07:45:25;;;;;;;31.88;7.05;;;10.30;61.90;;;;;;20869003;28;81861;-62
2021/10/27 07:55:30;;;;;;;16.40;4.68;;;10.60;60.90;;;;;;20870510;27;81959;-62
2021/10/27 08:05:43;;;;;;;16.90;4.90;;;11.10;59.50;;;;;;20870756;27;81897;-61
2021/10/27 08:15:48;;;;;;;9.23;4.57;;;11.70;57.80;;;;;;20870524;28;81911;-62
2021/10/27 08:25:54;;;;;;;13.40;5.53;;;12.40;55.80;;;;;;20871863;27;81604;-62
2021/10/27 08:35:56;;;;;;;17.02;6.10;;;13.10;53.70;;;;;;20866796;28;82057;-62
2021/10/27 08:46:01;;;;;;;18.25;6.53;;;13.50;53.00;;;;;;20866346;27;81515;-62
2021/10/27 08:56:06;;;;;;;15.70;6.38;;;13.50;53.10;;;;;;20865088;27;81401;-62
2021/10/27 09:06:31;;;;;;;23.58;7.45;;;13.70;52.90;;;;;;20870418;27;81776;-63
2021/10/27 10:07:34;;;;;;;22.88;10.43;;;26.50;31.70;;;;;;20877939;27;81322;-61
2021/10/27 10:17:40;;;;;;;18.05;5.95;;;28.80;28.60;;;;;;20861317;28;84474;-61
2021/10/27 10:27:43;;;;;;;14.75;5.43;;;32.00;25.80;;;;;;20876479;27;84355;-60
2021/10/27 10:38:17;;;;;;;14.60;5.78;;;34.20;23.90;;;;;;20873136;27;82116;-62
2021/10/27 11:40:15;;;;;;;8.00;4.10;;;41.40;18.90;;;;;;20870425;28;81716;-63
2021/10/27 11:50:19;;;;;;;8.10;3.63;;;37.20;21.90;;;;;;20870744;28;80962;-61
2021/10/27 12:00:26;;;;;;;11.30;3.72;;;34.90;23.80;;;;;;20871822;28;82065;-61
2021/10/27 12:10:43;;;;;;;9.80;2.90;;;34.40;24.60;;;;;;20869957;27;81127;-60
2021/10/27 12:20:55;;;;;;;8.43;2.60;;;35.10;23.50;;;;;;20866786;28;81516;-61
2021/10/27 12:30:57;;;;;;;8.10;3.33;;;36.00;22.60;;;;;;20856715;28;81543;-61
2021/10/27 12:41:16;;;;;;;6.82;2.35;;;35.90;22.70;;;;;;20875054;27;80509;-62
2021/10/27 12:51:17;;;;;;;8.90;2.42;;;34.20;23.70;;;;;;20892921;28;80912;-63
2021/10/27 13:32:08;;;;;;;5.95;3.00;;;35.60;22.30;;;;;;20893467;27;80667;-61
2021/10/27 13:42:59;;;;;;;9.80;2.47;;;32.50;24.70;;;;;;20893145;27;80851;-62
2021/10/27 14:13:38;;;;;;;6.30;2.60;;;36.70;19.30;;;;;;20877673;28;81343;-62
2021/10/27 15:35:44;;;;;;;6.03;2.10;;;25.70;29.30;;;;;;20886057;27;81215;-61
2021/10/27 15:56:07;;;;;;;8.35;1.80;;;23.90;31.30;;;;;;20802282;28;80550;-61
2021/10/27 16:06:11;;;;;;;6.05;1.67;;;23.30;31.70;;;;;;20844886;28;81959;-63
2021/10/27 16:16:14;;;;;;;6.72;2.13;;;22.80;32.30;;;;;;20888372;27;81817;-62
2021/10/27 16:26:16;;;;;;;6.13;1.92;;;22.40;32.80;;;;;;20854966;27;80972;-63
2021/10/27 16:36:22;;;;;;;8.75;2.55;;;21.90;33.50;;;;;;20827339;28;81849;-62
2021/10/27 16:46:24;;;;;;;6.05;1.95;;;21.50;34.60;;;;;;20838085;28;80754;-61
2021/10/27 16:56:25;;;;;;;6.15;2.00;;;21.20;35.70;;;;;;20824264;28;81962;-62
2021/10/27 17:06:28;;;;;;;6.05;1.73;;;20.80;36.20;;;;;;20833025;28;81707;-62
2021/10/27 17:16:32;;;;;;;4.07;1.90;;;20.30;37.60;;;;;;20833185;28;81849;-61
2021/10/27 17:26:35;;;;;;;9.05;2.60;;;19.90;38.80;;;;;;20819511;28;81836;-63
2021/10/27 17:36:39;;;;;;;8.85;2.78;;;;;;;;;;20809461;28;79826;-71
2021/10/27 18:07:09;;;;;;;10.25;4.47;;;18.40;43.20;;;;;;20813305;28;80107;-70
2021/10/27 18:17:14;;;;;;;17.10;5.43;;;18.20;43.80;;;;;;20874824;28;80651;-68
2021/10/27 18:37:29;;;;;;;13.90;5.97;;;17.60;45.30;;;;;;20803413;28;80092;-69
2021/10/27 18:47:33;;;;;;;16.67;4.70;;;17.40;45.70;;;;;;20803220;28;80136;-69
2021/10/27 19:18:34;;;;;;;17.17;7.03;;;16.90;46.70;;;;;;20876527;27;82894;-71
2021/10/27 19:28:47;;;;;;;18.77;6.83;;;16.70;47.50;;;;;;20886726;27;83802;-70
2021/10/27 20:30:38;;;;;;;18.67;6.13;;;15.70;52.00;;;;;;20883738;27;81116;-69
2021/10/27 21:01:55;;;;;;;10.85;4.53;;;15.20;52.20;;;;;;20857744;27;81884;-69
2021/10/27 21:22:23;;;;;;;15.68;3.72;;;14.90;52.60;;;;;;20893347;27;80751;-69
2021/10/27 21:32:45;;;;;;;14.30;4.20;;;14.60;53.10;;;;;;20885282;27;83373;-70
2021/10/27 21:42:47;;;;;;;9.55;4.18;;;14.50;53.40;;;;;;20810380;28;81892;-67
2021/10/27 21:52:49;;;;;;;12.10;3.03;;;14.20;53.50;;;;;;20810824;28;81844;-72
2021/10/27 22:02:51;;;;;;;7.57;3.10;;;14.00;53.50;;;;;;20808510;28;80998;-70
2021/10/27 22:12:54;;;;;;;4.93;3.03;;;13.80;53.90;;;;;;20806803;28;80668;-70
2021/10/27 22:22:57;;;;;;;11.40;4.30;;;13.70;54.30;;;;;;20807264;28;81628;-69
2021/10/27 22:33:00;;;;;;;10.30;3.33;;;13.60;54.60;;;;;;20788743;28;80671;-69
2021/10/27 22:43:02;;;;;;;9.52;3.10;;;13.50;55.20;;;;;;20805009;28;80963;-68
2021/10/27 22:53:06;;;;;;;6.50;3.03;;;13.30;55.60;;;;;;20804462;28;80834;-72
2021/10/27 23:03:44;;;;;;;9.52;3.42;;;13.10;56.40;;;;;;20803751;28;81048;-70
2021/10/27 23:14:16;;;;;;;8.90;3.63;;;12.90;56.90;;;;;;20804112;28;80769;-70
2021/10/27 23:55:28;;;;;;;10.65;2.78;;;12.30;58.10;;;;;;20800375;28;81808;-67
